createdAt,value
2022-08-11T00:01:27.248Z,83.75
2022-08-11T00:04:03.620Z,83.27
2022-08-11T00:06:35.476Z,83.32
2022-08-11T00:09:15.565Z,83.80
2022-08-11T00:11:52.016Z,83.86
2022-08-11T00:14:37.456Z,84.02
2022-08-11T00:17:09.677Z,83.68
2022-08-11T00:20:12.972Z,84.18
2022-08-11T00:22:31.371Z,84.57
2022-08-11T00:25:10.115Z,83.96
2022-08-11T00:27:41.354Z,83.93
2022-08-11T00:30:11.726Z,83.79
2022-08-11T00:32:42.983Z,84.00
2022-08-11T00:35:54.864Z,84.20
2022-08-11T00:38:04.953Z,85.41
2022-08-11T00:40:42.925Z,85.16
2022-08-11T00:43:40.319Z,85.23
2022-08-11T00:46:16.505Z,85.19
2022-08-11T00:49:19.587Z,85.37
2022-08-11T00:52:15.255Z,85.16
2022-08-11T00:55:08.095Z,84.71
2022-08-11T00:58:12.831Z,85.16
2022-08-11T01:01:22.817Z,85.32
2022-08-11T01:04:12.158Z,85.27
2022-08-11T01:07:08.839Z,85.99
2022-08-11T01:10:20.485Z,86.42
2022-08-11T01:13:10.122Z,86.03
2022-08-11T01:16:15.617Z,85.54
2022-08-11T01:19:16.174Z,85.83
2022-08-11T01:22:02.981Z,86.41
2022-08-11T01:25:23.188Z,86.30
2022-08-11T01:28:35.474Z,86.05
2022-08-11T01:31:23.767Z,85.94
2022-08-11T01:34:07.106Z,86.09
2022-08-11T01:37:16.371Z,86.38
2022-08-11T01:39:56.694Z,86.77
2022-08-11T01:43:29.247Z,86.77
2022-08-11T01:46:26.607Z,86.50
2022-08-11T01:50:08.446Z,87.40
2022-08-11T01:52:33.622Z,87.24
2022-08-11T01:55:24.192Z,87.41
2022-08-11T01:58:17.252Z,87.41
2022-08-11T02:00:52.816Z,87.85
2022-08-11T02:03:26.643Z,87.91
2022-08-11T02:06:33.268Z,87.88
2022-08-11T02:09:10.491Z,88.26
2022-08-11T02:11:39.234Z,88.11
2022-08-11T02:14:36.905Z,87.79
2022-08-11T02:17:23.280Z,87.30
2022-08-11T02:20:31.903Z,86.91
2022-08-11T02:24:05.084Z,87.18
2022-08-11T02:26:46.941Z,87.34
2022-08-11T02:29:46.166Z,87.65
2022-08-11T02:32:44.575Z,87.48
2022-08-11T02:35:19.245Z,86.96
2022-08-11T02:37:47.127Z,87.17
2022-08-11T02:40:53.409Z,87.39
2022-08-11T02:43:34.759Z,87.40
2022-08-11T02:46:18.073Z,87.65
2022-08-11T02:49:17.033Z,88.08
2022-08-11T02:52:04.973Z,88.09
2022-08-11T02:55:01.781Z,88.41
2022-08-11T02:57:38.159Z,88.70
2022-08-11T03:00:13.005Z,88.74
2022-08-11T03:03:18.823Z,88.54
2022-08-11T03:06:20.103Z,88.10
2022-08-11T03:09:04.684Z,88.04
2022-08-11T03:12:19.621Z,88.33
2022-08-11T03:15:22.099Z,88.53
2022-08-11T03:18:29.752Z,88.22
2022-08-11T03:21:09.525Z,88.07
2022-08-11T03:24:04.217Z,87.63
2022-08-11T03:26:54.042Z,88.10
2022-08-11T03:29:46.553Z,88.83
2022-08-11T03:32:39.219Z,88.97
2022-08-11T03:35:09.796Z,89.50
2022-08-11T03:38:03.289Z,89.40
2022-08-11T03:42:01.172Z,89.47
2022-08-11T03:44:43.427Z,89.70
2022-08-11T03:47:20.707Z,89.56
2022-08-11T03:50:00.596Z,89.45
2022-08-11T03:53:10.435Z,89.38
2022-08-11T03:56:12.264Z,88.83
2022-08-11T03:59:07.097Z,88.94
2022-08-11T04:02:12.524Z,88.89
2022-08-11T04:05:13.795Z,88.93
2022-08-11T04:07:59.970Z,88.91
2022-08-11T04:11:08.668Z,88.96
2022-08-11T04:14:24.485Z,89.10
2022-08-11T04:17:01.832Z,88.90
2022-08-11T04:19:57.845Z,89.06
2022-08-11T04:22:38.249Z,89.24
2022-08-11T04:25:12.367Z,89.06
2022-08-11T04:28:04.911Z,88.60
2022-08-11T04:30:51.885Z,87.41
2022-08-11T04:33:55.382Z,86.57
2022-08-11T04:37:05.599Z,85.03
2022-08-11T04:40:21.598Z,83.64
2022-08-11T04:43:07.962Z,82.54
2022-08-11T04:45:51.998Z,81.24
2022-08-11T04:49:09.233Z,80.81
2022-08-11T04:52:02.025Z,79.43
2022-08-11T04:54:54.479Z,78.73
2022-08-11T04:58:00.265Z,77.69
2022-08-11T05:00:57.425Z,77.35
2022-08-11T05:04:28.171Z,75.59
2022-08-11T05:07:34.522Z,75.39
2022-08-11T05:10:43.166Z,74.30
2022-08-11T05:13:41.061Z,73.75
2022-08-11T05:16:36.282Z,73.83
2022-08-11T05:19:23.809Z,73.37
2022-08-11T05:22:16.358Z,71.28
2022-08-11T05:25:15.241Z,70.47
2022-08-11T05:28:33.887Z,70.94
2022-08-11T05:31:30.622Z,69.96
2022-08-11T05:34:38.883Z,69.31
2022-08-11T05:37:26.130Z,67.89
2022-08-11T05:40:30.603Z,67.41
2022-08-11T05:43:22.213Z,66.50
2022-08-11T05:46:20.316Z,65.73
2022-08-11T05:49:08.781Z,64.73
2022-08-11T05:52:05.630Z,64.11
2022-08-11T05:55:06.353Z,64.24
2022-08-11T05:57:49.731Z,63.67
2022-08-11T06:00:20.910Z,64.26
2022-08-11T06:02:54.334Z,63.44
2022-08-11T06:05:44.483Z,62.86
2022-08-11T06:08:14.851Z,62.39
2022-08-11T06:10:45.689Z,61.29
2022-08-11T06:13:18.289Z,61.76
2022-08-11T06:15:53.184Z,61.94
2022-08-11T06:18:22.099Z,60.95
2022-08-11T06:20:56.512Z,60.35
2022-08-11T06:23:32.089Z,60.02
2022-08-11T06:26:01.504Z,57.25
2022-08-11T06:28:36.092Z,57.30
2022-08-11T06:31:14.311Z,55.78
2022-08-11T06:33:53.913Z,54.87
2022-08-11T06:36:28.310Z,53.81
2022-08-11T06:39:24.005Z,54.04
2022-08-11T06:42:07.167Z,54.64
2022-08-11T06:45:01.962Z,54.65
2022-08-11T06:47:30.196Z,53.43
2022-08-11T06:50:18.344Z,52.65
2022-08-11T06:52:48.245Z,52.36
2022-08-11T06:55:56.619Z,51.03
2022-08-11T06:58:49.478Z,49.53
2022-08-11T07:01:37.198Z,49.28
2022-08-11T07:04:09.266Z,46.77
2022-08-11T07:06:51.143Z,47.65
2022-08-11T07:10:13.388Z,46.51
2022-08-11T07:13:04.454Z,45.91
2022-08-11T07:16:11.010Z,45.86
2022-08-11T07:19:02.045Z,45.73
2022-08-11T07:22:00.745Z,45.87
2022-08-11T07:25:13.362Z,45.79
2022-08-11T07:28:03.485Z,44.08
2022-08-11T07:30:33.363Z,42.99
2022-08-11T07:33:03.294Z,42.58
2022-08-11T07:35:43.983Z,42.84
2022-08-11T07:38:22.875Z,42.36
2022-08-11T07:40:53.564Z,41.99
2022-08-11T07:43:25.082Z,40.57
2022-08-11T07:46:11.659Z,39.88
2022-08-11T07:49:00.911Z,40.31
2022-08-11T07:51:47.633Z,41.15
2022-08-11T07:54:17.172Z,40.80
2022-08-11T07:56:55.077Z,39.33
2022-08-11T08:00:04.003Z,38.90
2022-08-11T08:03:03.671Z,38.43
2022-08-11T08:05:50.406Z,37.85
2022-08-11T08:08:37.012Z,37.02
2022-08-11T08:11:27.527Z,36.48
2022-08-11T08:14:15.167Z,36.20
2022-08-11T08:17:02.352Z,36.28
2022-08-11T08:19:31.947Z,36.58
2022-08-11T08:22:10.951Z,36.33
2022-08-11T08:24:49.999Z,36.05
2022-08-11T08:27:20.508Z,35.30
2022-08-11T08:30:08.671Z,34.44
2022-08-11T08:32:40.849Z,34.79
2022-08-11T08:35:11.526Z,35.42
2022-08-11T08:37:46.221Z,34.74
2022-08-11T08:40:15.805Z,34.70
2022-08-11T08:42:53.775Z,34.14
2022-08-11T08:45:23.598Z,33.74
2022-08-11T08:47:53.346Z,33.41
2022-08-11T08:50:46.903Z,33.28
2022-08-11T08:53:19.049Z,33.66
2022-08-11T08:55:47.484Z,33.98
2022-08-11T08:58:16.619Z,33.60
2022-08-11T09:00:46.690Z,33.63
2022-08-11T09:03:39.887Z,32.79
2022-08-11T09:06:02.894Z,31.99
2022-08-11T09:08:32.976Z,31.99
2022-08-11T09:11:22.623Z,32.18
2022-08-11T09:14:04.807Z,31.21
2022-08-11T09:16:39.068Z,31.06
2022-08-11T09:19:09.128Z,31.54
2022-08-11T09:21:48.876Z,31.23
2022-08-11T09:24:38.022Z,30.47
2022-08-11T09:27:11.019Z,29.94
2022-08-11T09:29:39.229Z,29.49
2022-08-11T09:32:08.574Z,29.10
2022-08-11T09:34:39.258Z,28.95
2022-08-11T09:37:54.945Z,28.03
2022-08-11T09:40:33.741Z,27.82
2022-08-11T09:43:24.703Z,27.73
2022-08-11T09:45:54.773Z,26.78
2022-08-11T09:48:26.805Z,27.17
2022-08-11T09:51:01.556Z,26.95
2022-08-11T09:53:41.283Z,26.45
2022-08-11T09:56:35.123Z,26.08
2022-08-11T09:59:04.919Z,25.75
2022-08-11T10:01:42.410Z,25.60
2022-08-11T10:04:35.047Z,25.54
2022-08-11T10:07:10.503Z,25.26
2022-08-11T10:09:50.903Z,25.15
2022-08-11T10:12:28.060Z,25.18
2022-08-11T10:15:23.610Z,23.84
2022-08-11T10:18:21.140Z,24.01
2022-08-11T10:20:51.598Z,24.17
2022-08-11T10:24:00.827Z,24.17
2022-08-11T10:26:48.330Z,24.10
2022-08-11T10:29:37.477Z,23.69
2022-08-11T10:32:29.516Z,22.88
2022-08-11T10:35:02.246Z,23.19
2022-08-11T10:38:07.544Z,23.57
2022-08-11T10:40:25.565Z,24.12
2022-08-11T10:43:13.977Z,24.44
2022-08-11T10:46:05.103Z,24.73
2022-08-11T10:48:38.106Z,24.64
2022-08-11T10:51:14.112Z,24.44
2022-08-11T10:54:02.392Z,23.73
2022-08-11T10:56:53.684Z,24.05
2022-08-11T10:59:24.677Z,24.12
2022-08-11T11:01:54.706Z,24.34
2022-08-11T11:04:38.492Z,23.79
2022-08-11T11:07:16.262Z,23.67
2022-08-11T11:09:51.169Z,23.70
2022-08-11T11:13:02.952Z,23.69
2022-08-11T11:15:53.553Z,22.81
2022-08-11T11:18:25.828Z,23.22
2022-08-11T11:20:57.545Z,22.62
2022-08-11T11:23:34.060Z,21.79
2022-08-11T11:26:10.443Z,22.58
2022-08-11T11:29:03.143Z,22.79
2022-08-11T11:32:11.154Z,22.73
2022-08-11T11:35:10.335Z,20.86
2022-08-11T11:37:40.885Z,20.62
2022-08-11T11:40:31.660Z,22.05
2022-08-11T11:43:01.221Z,22.50
2022-08-11T11:45:30.482Z,22.86
2022-08-11T11:48:01.348Z,22.99
2022-08-11T11:50:34.633Z,23.15
2022-08-11T11:53:07.056Z,23.51
2022-08-11T11:55:36.442Z,23.41
2022-08-11T11:58:24.629Z,23.81
2022-08-11T12:01:12.900Z,23.84
2022-08-11T12:03:41.277Z,24.22
2022-08-11T12:06:14.272Z,24.35
2022-08-11T12:08:44.578Z,24.27
2022-08-11T12:11:32.141Z,24.10
2022-08-11T12:14:04.134Z,24.09
2022-08-11T12:16:41.436Z,23.72
2022-08-11T12:19:16.872Z,23.88
2022-08-11T12:22:04.479Z,23.60
2022-08-11T12:24:53.607Z,23.33
2022-08-11T12:27:28.600Z,22.87
2022-08-11T12:30:09.355Z,22.48
2022-08-11T12:32:40.170Z,22.42
2022-08-11T12:35:09.123Z,22.79
2022-08-11T12:37:41.186Z,22.47
2022-08-11T12:40:42.600Z,22.29
2022-08-11T12:43:43.365Z,22.45
2022-08-11T12:46:19.823Z,23.00
2022-08-11T12:49:09.977Z,23.08
2022-08-11T12:52:11.307Z,23.06
2022-08-11T12:54:49.947Z,22.29
2022-08-11T12:57:50.558Z,21.99
2022-08-11T13:00:38.649Z,22.27
2022-08-11T13:03:28.382Z,22.80
2022-08-11T13:06:02.754Z,22.92
2022-08-11T13:08:35.692Z,22.85
2022-08-11T13:11:23.911Z,22.48
2022-08-11T13:13:57.831Z,22.14
2022-08-11T13:16:30.769Z,22.40
2022-08-11T13:19:01.373Z,22.23
2022-08-11T13:21:31.277Z,22.05
2022-08-11T13:24:03.409Z,22.21
2022-08-11T13:26:48.081Z,22.34
2022-08-11T13:29:24.582Z,23.31
2022-08-11T13:31:56.310Z,23.26
2022-08-11T13:34:27.091Z,23.31
2022-08-11T13:36:58.520Z,23.55
2022-08-11T13:39:30.282Z,23.41
2022-08-11T13:42:01.296Z,23.11
2022-08-11T13:44:32.898Z,22.96
2022-08-11T13:47:04.893Z,22.75
2022-08-11T13:49:39.927Z,22.49
2022-08-11T13:52:14.931Z,22.42
2022-08-11T13:54:46.882Z,22.77
2022-08-11T13:58:06.314Z,22.97
2022-08-11T14:00:23.611Z,23.25
2022-08-11T14:02:57.225Z,23.34
2022-08-11T14:05:40.306Z,23.25
2022-08-11T14:08:32.467Z,23.57
2022-08-11T14:12:20.092Z,24.60
2022-08-11T14:14:21.772Z,25.20
2022-08-11T14:16:52.383Z,25.76
2022-08-11T14:19:24.606Z,25.82
2022-08-11T14:22:08.134Z,26.00
2022-08-11T14:24:49.807Z,25.74
2022-08-11T14:27:46.058Z,26.01
2022-08-11T14:30:34.593Z,26.31
2022-08-11T14:33:03.003Z,26.56
2022-08-11T14:35:49.437Z,26.71
2022-08-11T14:38:19.912Z,26.64
2022-08-11T14:41:07.448Z,26.72
2022-08-11T14:44:12.532Z,27.06
2022-08-11T14:47:02.682Z,26.93
2022-08-11T14:49:35.074Z,26.60
2022-08-11T14:52:10.040Z,26.01
2022-08-11T14:54:56.753Z,25.96
2022-08-11T14:58:04.786Z,25.53
2022-08-11T15:00:18.251Z,25.43
2022-08-11T15:03:11.209Z,25.87
2022-08-11T15:05:56.287Z,25.79
2022-08-11T15:08:52.436Z,25.62
2022-08-11T15:11:50.144Z,25.45
2022-08-11T15:14:38.192Z,25.27
2022-08-11T15:17:09.808Z,24.99
2022-08-11T15:20:01.180Z,24.74
2022-08-11T15:22:48.181Z,25.13
2022-08-11T15:25:16.476Z,25.18
2022-08-11T15:28:07.141Z,25.39
2022-08-11T15:30:56.016Z,25.54
2022-08-11T15:33:47.730Z,25.48
2022-08-11T15:36:34.772Z,25.11
2022-08-11T15:39:15.175Z,25.00
2022-08-11T15:42:16.153Z,24.71
2022-08-11T15:45:19.047Z,24.52
2022-08-11T15:48:04.166Z,24.82
2022-08-11T15:50:40.169Z,24.77
2022-08-11T15:53:56.838Z,24.90
2022-08-11T15:56:29.329Z,25.26
2022-08-11T15:59:42.008Z,25.29
2022-08-11T16:02:31.292Z,25.37
2022-08-11T16:05:02.809Z,25.96
2022-08-11T16:07:36.389Z,26.26
2022-08-11T16:10:17.953Z,26.38
2022-08-11T16:13:06.930Z,26.55
2022-08-11T16:15:59.026Z,26.35
2022-08-11T16:18:57.514Z,26.83
2022-08-11T16:21:36.150Z,27.40
2022-08-11T16:27:03.922Z,27.65
2022-08-11T16:27:12.496Z,27.81
2022-08-11T16:29:45.887Z,28.03
2022-08-11T16:32:20.431Z,28.61
2022-08-11T16:35:14.676Z,28.59
2022-08-11T16:38:20.846Z,29.20
2022-08-11T16:40:52.957Z,29.31
2022-08-11T16:43:46.294Z,29.64
2022-08-11T16:46:37.678Z,29.97
2022-08-11T16:49:22.089Z,30.25
2022-08-11T16:51:50.093Z,30.47
2022-08-11T16:54:19.401Z,30.59
2022-08-11T16:56:51.090Z,30.72
2022-08-11T16:59:24.102Z,31.07
2022-08-11T17:02:35.154Z,31.41
2022-08-11T17:05:29.488Z,31.96
2022-08-11T17:08:20.273Z,32.60
2022-08-11T17:11:20.393Z,33.12
2022-08-11T17:14:07.276Z,33.70
2022-08-11T17:16:40.030Z,34.03
2022-08-11T17:20:41.593Z,34.39
2022-08-11T17:22:28.532Z,34.71
2022-08-11T17:24:58.021Z,34.90
2022-08-11T17:27:28.447Z,34.98
2022-08-11T17:29:59.751Z,35.22
2022-08-11T17:33:07.492Z,35.30
2022-08-11T17:35:39.491Z,35.71
2022-08-11T17:38:12.624Z,36.00
2022-08-11T17:41:03.559Z,36.25
2022-08-11T17:43:51.569Z,36.71
2022-08-11T17:46:39.196Z,36.96
2022-08-11T17:49:10.037Z,37.19
2022-08-11T17:51:58.217Z,37.49
2022-08-11T17:54:45.746Z,37.82
2022-08-11T17:57:34.084Z,38.20
2022-08-11T18:00:05.290Z,38.51
2022-08-11T18:03:01.691Z,38.65
2022-08-11T18:05:36.135Z,38.90
2022-08-11T18:08:28.890Z,39.19
2022-08-11T18:11:18.494Z,39.80
2022-08-11T18:14:25.999Z,40.62
2022-08-11T18:17:13.340Z,41.83
2022-08-11T18:20:00.383Z,42.79
2022-08-11T18:22:58.535Z,43.68
2022-08-11T18:25:49.553Z,43.75
2022-08-11T18:28:42.559Z,44.42
2022-08-11T18:31:32.317Z,44.64
2022-08-11T18:34:28.034Z,44.86
2022-08-11T18:37:27.409Z,44.99
2022-08-11T18:40:24.141Z,46.21
2022-08-11T18:43:13.794Z,46.75
2022-08-11T18:46:07.232Z,47.04
2022-08-11T18:48:58.471Z,47.93
2022-08-11T18:51:47.068Z,48.33
2022-08-11T18:54:37.004Z,48.32
2022-08-11T18:57:27.142Z,48.82
2022-08-11T19:00:18.461Z,49.06
2022-08-11T19:03:06.214Z,49.64
2022-08-11T19:06:32.466Z,49.52
2022-08-11T19:09:11.145Z,49.62
2022-08-11T19:11:59.875Z,49.72
2022-08-11T19:14:49.235Z,50.01
2022-08-11T19:17:45.925Z,50.13
2022-08-11T19:20:36.771Z,50.38
2022-08-11T19:23:26.053Z,50.88
2022-08-11T19:26:14.742Z,50.90
2022-08-11T19:29:04.225Z,51.43
2022-08-11T19:31:52.196Z,52.34
2022-08-11T19:34:42.104Z,53.26
2022-08-11T19:37:31.368Z,53.46
2022-08-11T19:40:26.173Z,54.49
2022-08-11T19:43:25.889Z,55.18
2022-08-11T19:46:18.263Z,55.05
2022-08-11T19:49:08.936Z,55.19
2022-08-11T19:51:56.865Z,55.44
2022-08-11T19:54:51.211Z,55.70
2022-08-11T19:57:40.983Z,55.61
2022-08-11T20:00:37.779Z,56.12
2022-08-11T20:03:28.372Z,57.85
2022-08-11T20:06:18.550Z,57.77
2022-08-11T20:09:08.792Z,57.81
2022-08-11T20:11:59.967Z,58.88
2022-08-11T20:14:49.571Z,59.87
2022-08-11T20:17:37.747Z,60.17
2022-08-11T20:20:27.829Z,60.95
2022-08-11T20:23:18.446Z,61.19
2022-08-11T20:26:29.550Z,60.76
2022-08-11T20:29:16.167Z,61.13
2022-08-11T20:32:06.663Z,61.86
2022-08-11T20:34:58.451Z,61.97
2022-08-11T20:37:51.111Z,61.56
2022-08-11T20:40:41.737Z,61.54
2022-08-11T20:44:06.210Z,61.69
2022-08-11T20:46:42.885Z,62.73
2022-08-11T20:49:40.914Z,61.82
2022-08-11T20:52:36.043Z,62.04
2022-08-11T20:55:45.462Z,62.38
2022-08-11T20:59:02.412Z,62.54
2022-08-11T21:01:42.333Z,63.12
2022-08-11T21:04:30.051Z,64.12
2022-08-11T21:10:29.448Z,64.04
2022-08-11T21:13:25.853Z,64.02
2022-08-11T21:16:25.691Z,64.74
2022-08-11T21:20:01.555Z,65.22
2022-08-11T21:22:59.299Z,66.04
2022-08-11T21:25:54.906Z,66.52
2022-08-11T21:28:41.503Z,67.65
2022-08-11T21:31:29.173Z,67.40
2022-08-11T21:34:17.408Z,68.30
2022-08-11T21:37:04.901Z,67.64
2022-08-11T21:39:54.038Z,67.63
2022-08-11T21:42:46.812Z,67.58
2022-08-11T21:45:34.674Z,68.21
2022-08-11T21:48:22.713Z,67.37
2022-08-11T21:51:09.572Z,66.91
2022-08-11T21:53:56.785Z,66.84
2022-08-11T21:56:46.333Z,66.89
2022-08-11T21:59:42.567Z,66.68
2022-08-11T22:02:29.168Z,66.74
2022-08-11T22:05:16.119Z,67.38
2022-08-11T22:08:03.401Z,67.86
2022-08-11T22:10:50.596Z,67.86
2022-08-11T22:13:37.189Z,68.62
2022-08-11T22:16:24.379Z,68.51
2022-08-11T22:19:15.597Z,68.75
2022-08-11T22:22:06.115Z,68.88
2022-08-11T22:24:56.413Z,69.14
2022-08-11T22:27:44.428Z,69.20
2022-08-11T22:30:31.747Z,69.35
2022-08-11T22:33:25.714Z,69.42
2022-08-11T22:36:17.087Z,69.41
2022-08-11T22:39:06.443Z,69.75
2022-08-11T22:41:53.265Z,69.87
2022-08-11T22:44:39.860Z,70.80
2022-08-11T22:47:40.545Z,70.69
2022-08-11T22:50:29.151Z,70.98
2022-08-11T22:53:16.952Z,71.50
2022-08-11T22:56:04.216Z,71.86
2022-08-11T22:58:51.382Z,72.27
2022-08-11T23:01:39.736Z,71.85
2022-08-11T23:04:42.776Z,72.16
2022-08-11T23:07:50.059Z,72.75
2022-08-11T23:10:40.056Z,73.26
2022-08-11T23:13:28.112Z,74.23
2022-08-11T23:16:15.805Z,74.87
2022-08-11T23:19:03.854Z,74.97
2022-08-11T23:21:52.654Z,74.16
2022-08-11T23:24:40.837Z,73.83
2022-08-11T23:27:28.678Z,73.39
2022-08-11T23:30:18.823Z,73.30
2022-08-11T23:33:09.576Z,73.54
2022-08-11T23:36:04.581Z,73.96
2022-08-11T23:38:53.351Z,73.91
2022-08-11T23:41:40.677Z,74.63
2022-08-11T23:44:27.997Z,74.06
2022-08-11T23:47:19.772Z,74.15
2022-08-11T23:50:07.578Z,75.63
2022-08-11T23:52:54.876Z,75.56
2022-08-11T23:55:42.343Z,76.75
2022-08-11T23:58:31.006Z,76.47
